Time;durP1;ratioP1;P1;durP2;ratioP2;P2;SDS_P1;SDS_P2;PMS_P1;PMS_P2;Temp;Humidity;BMP_temperature;BMP_pressure;BME280_temperature;BME280_humidity;BME280_pressure;Samples;Min_cycle;Max_cycle;Signal;HPM_P1;HPM_P2
2024/03/27 00:01:38;;;;;;;;;;;;;;;;;;5067326;28;19966;-65
2024/03/27 00:04:04;;;;;;;;;;;;;;;;;;5068338;28;19921;-65
2024/03/27 00:06:30;;;;;;;;;;;;;;;;;;5079437;28;19928;-65
2024/03/27 00:08:56;;;;;;;;;;;;;;;;;;5066439;28;20025;-65
2024/03/27 00:11:24;;;;;;;;;;;;;;;;;;5068386;28;20268;-65
2024/03/27 00:13:50;;;;;;;;;;;;;;;;;;5066749;28;19928;-65
2024/03/27 00:16:16;;;;;;;;;;;;;;;;;;5064078;28;20334;-64
2024/03/27 00:18:42;;;;;;;;;;;;;;;;;;5067609;28;20393;-64
2024/03/27 00:21:08;;;;;;;;;;;;;;;;;;5071233;28;19924;-64
2024/03/27 00:23:34;;;;;;;;;;;;;;;;;;5066276;28;19927;-64
2024/03/27 00:26:00;;;;;;;;;;;;;;;;;;5043525;28;19925;-64
2024/03/27 00:28:25;;;;;;;;;;;;;;;;;;5066618;28;19924;-64
2024/03/27 00:30:51;;;;;;;;;;;;;;;;;;5061536;28;20447;-64
2024/03/27 00:33:17;;;;;;;;;;;;;;;;;;5068518;28;20011;-64
2024/03/27 00:35:43;;;;;;;;;;;;;;;;;;5065610;28;20011;-64
2024/03/27 00:38:09;;;;;;;;;;;;;;;;;;5060357;28;20039;-64
2024/03/27 00:40:35;;;;;;;;;;;;;;;;;;5069013;23;19933;-66
2024/03/27 00:43:01;;;;;;;;;;;;;;;;;;5064999;28;20272;-66
2024/03/27 00:45:27;;;;;;;;;;;;;;;;;;5067100;28;19924;-66
2024/03/27 00:47:53;;;;;;;;;;;;;;;;;;5060988;28;19960;-66
2024/03/27 00:50:19;;;;;;;;;;;;;;;;;;5068160;28;19963;-66
2024/03/27 00:52:46;;;;;;;;;;;;;;;;;;5069765;28;19948;-66
2024/03/27 00:55:12;;;;;;;;;;;;;;;;;;5069261;28;19920;-66
2024/03/27 00:57:38;;;;;;;;;;;;;;;;;;5067776;28;20012;-66
2024/03/27 01:00:04;;;;;;;;;;;;;;;;;;5070105;28;20325;-66
2024/03/27 01:02:30;;;;;;;;;;;;;;;;;;5065083;28;19969;-66
2024/03/27 01:04:55;;;;;;;;;;;;;;;;;;5069773;28;19970;-66
2024/03/27 01:07:22;;;;;;;;;;;;;;;;;;5063455;28;19997;-66
2024/03/27 01:09:48;;;;;;;;;;;;;;;;;;5068156;28;19928;-66
2024/03/27 01:12:13;;;;;;;;;;;;;;;;;;5063055;28;19928;-66
2024/03/27 01:14:40;;;;;;;;;;;;;;;;;;5060515;28;20284;-66
2024/03/27 01:17:06;;;;;;;;;;;;;;;;;;5062945;28;19928;-66
2024/03/27 01:19:32;;;;;;;;;;;;;;;;;;5070138;28;19924;-66
2024/03/27 01:21:58;;;;;;;;;;;;;;;;;;5063701;28;19924;-66
2024/03/27 01:24:24;;;;;;;;;;;;;;;;;;5067014;28;19921;-66
2024/03/27 01:26:50;;;;;;;;;;;;;;;;;;5066951;28;19966;-66
2024/03/27 01:29:16;;;;;;;;;;;;;;;;;;5064992;28;20371;-66
2024/03/27 01:31:42;;;;;;;;;;;;;;;;;;5062166;28;20015;-66
2024/03/27 01:34:08;;;;;;;;;;;;;;;;;;5053561;28;19925;-66
2024/03/27 01:36:34;;;;;;;;;;;;;;;;;;5059750;28;19928;-66
2024/03/27 01:38:59;;;;;;;;;;;;;;;;;;5062456;28;19932;-66
2024/03/27 01:41:25;;;;;;;;;;;;;;;;;;5063143;28;19924;-66
2024/03/27 01:43:51;;;;;;;;;;;;;;;;;;5069545;28;20011;-66
2024/03/27 01:46:20;;;;;;;;;;;;;;;;;;5067786;28;21787;-66
2024/03/27 01:48:45;;;;;;;;;;;;;;;;;;5065717;28;20560;-66
2024/03/27 01:51:11;;;;;;;;;;;;;;;;;;5065638;28;19928;-66
2024/03/27 01:53:38;;;;;;;;;;;;;;;;;;5061817;28;19932;-66
2024/03/27 01:56:04;;;;;;;;;;;;;;;;;;5064306;28;20288;-66
2024/03/27 01:58:30;;;;;;;;;;;;;;;;;;5066661;28;19974;-66
2024/03/27 02:00:56;;;;;;;;;;;;;;;;;;5066688;28;19958;-66
2024/03/27 02:03:22;;;;;;;;;;;;;;;;;;5066566;28;19978;-66
2024/03/27 02:05:48;;;;;;;;;;;;;;;;;;5068617;28;20445;-66
2024/03/27 02:08:14;;;;;;;;;;;;;;;;;;5066705;28;19925;-66
2024/03/27 02:10:39;;;;;;;;;;;;;;;;;;5048525;28;19920;-66
2024/03/27 02:13:05;;;;;;;;;;;;;;;;;;5070000;28;19932;-66
2024/03/27 02:15:31;;;;;;;;;;;;;;;;;;5072852;28;20454;-66
2024/03/27 02:17:57;;;;;;;;;;;;;;;;;;5080564;28;19924;-66
2024/03/27 02:20:23;;;;;;;;;;;;;;;;;;5068029;28;19924;-66
2024/03/27 02:22:49;;;;;;;;;;;;;;;;;;5072731;28;19920;-66
2024/03/27 02:25:15;;;;;;;;;;;;;;;;;;5070896;28;20394;-66
2024/03/27 02:27:41;;;;;;;;;;;;;;;;;;5070111;28;19935;-66
2024/03/27 02:30:07;;;;;;;;;;;;;;;;;;5066114;28;19927;-66
2024/03/27 02:32:33;;;;;;;;;;;;;;;;;;5071011;28;19920;-66
2024/03/27 02:34:58;;;;;;;;;;;;;;;;;;5068335;28;20572;-66
2024/03/27 02:37:24;;;;;;;;;;;;;;;;;;5071153;28;19925;-66
2024/03/27 02:39:50;;;;;;;;;;;;;;;;;;5072377;28;19921;-66
2024/03/27 02:42:16;;;;;;;;;;;;;;;;;;5070948;28;19924;-66
2024/03/27 02:44:42;;;;;;;;;;;;;;;;;;5068290;28;19924;-66
2024/03/27 02:47:08;;;;;;;;;;;;;;;;;;5069091;28;19924;-66
2024/03/27 02:49:34;;;;;;;;;;;;;;;;;;5068861;28;19929;-66
2024/03/27 02:52:00;;;;;;;;;;;;;;;;;;5058049;28;19924;-66
2024/03/27 02:54:26;;;;;;;;;;;;;;;;;;5071496;28;19924;-67
2024/03/27 02:56:52;;;;;;;;;;;;;;;;;;5071054;28;19954;-67
2024/03/27 02:59:18;;;;;;;;;;;;;;;;;;5047909;28;19927;-66
2024/03/27 03:01:44;;;;;;;;;;;;;;;;;;5068060;28;19924;-66
2024/03/27 03:04:10;;;;;;;;;;;;;;;;;;5070764;28;19947;-66
2024/03/27 03:06:36;;;;;;;;;;;;;;;;;;5058469;28;19927;-66
2024/03/27 03:09:02;;;;;;;;;;;;;;;;;;5067984;28;19921;-66
2024/03/27 03:11:28;;;;;;;;;;;;;;;;;;5066863;28;20371;-66
2024/03/27 03:13:54;;;;;;;;;;;;;;;;;;5071172;28;19932;-67
2024/03/27 03:16:20;;;;;;;;;;;;;;;;;;5069058;28;20389;-66
2024/03/27 03:18:46;;;;;;;;;;;;;;;;;;5071121;28;19927;-66
2024/03/27 03:21:12;;;;;;;;;;;;;;;;;;5066965;28;19931;-66
2024/03/27 03:23:38;;;;;;;;;;;;;;;;;;5068737;28;19929;-66
2024/03/27 03:26:04;;;;;;;;;;;;;;;;;;5072521;28;19943;-66
2024/03/27 03:28:30;;;;;;;;;;;;;;;;;;5066920;28;19925;-66
2024/03/27 03:30:56;;;;;;;;;;;;;;;;;;5069702;28;19925;-66
2024/03/27 03:33:22;;;;;;;;;;;;;;;;;;5071904;28;19924;-66
2024/03/27 03:35:48;;;;;;;;;;;;;;;;;;5069020;28;19921;-66
2024/03/27 03:38:13;;;;;;;;;;;;;;;;;;5071515;28;19927;-66
2024/03/27 03:40:39;;;;;;;;;;;;;;;;;;5068314;28;20314;-67
2024/03/27 03:43:05;;;;;;;;;;;;;;;;;;5053356;28;19928;-66
2024/03/27 03:45:31;;;;;;;;;;;;;;;;;;5060498;28;19924;-66
2024/03/27 03:47:57;;;;;;;;;;;;;;;;;;5071548;28;19944;-67
2024/03/27 03:50:23;;;;;;;;;;;;;;;;;;5070224;28;20399;-67
2024/03/27 03:52:49;;;;;;;;;;;;;;;;;;5058418;28;19927;-66
2024/03/27 03:55:15;;;;;;;;;;;;;;;;;;5065736;28;19930;-66
2024/03/27 03:57:41;;;;;;;;;;;;;;;;;;5072699;28;19924;-66
2024/03/27 04:00:15;;;;;;;;;;;;;;;;;;5066017;28;19932;-66
2024/03/27 04:02:41;;;;;;;;;;;;;;;;;;5067768;28;19982;-67
2024/03/27 04:05:07;;;;;;;;;;;;;;;;;;5067728;28;19924;-66
2024/03/27 04:07:33;;;;;;;;;;;;;;;;;;5068341;28;19966;-67
2024/03/27 04:09:59;;;;;;;;;;;;;;;;;;5070118;28;19924;-67
2024/03/27 04:12:25;;;;;;;;;;;;;;;;;;5067974;28;19973;-67
2024/03/27 04:14:51;;;;;;;;;;;;;;;;;;5069669;28;20364;-67
2024/03/27 04:17:17;;;;;;;;;;;;;;;;;;5069490;28;19928;-67
2024/03/27 04:19:43;;;;;;;;;;;;;;;;;;5066314;28;19925;-67
2024/03/27 04:22:09;;;;;;;;;;;;;;;;;;5064341;28;19928;-67
2024/03/27 04:24:35;;;;;;;;;;;;;;;;;;5067344;28;20355;-67
2024/03/27 04:27:01;;;;;;;;;;;;;;;;;;5064043;28;20123;-67
2024/03/27 04:29:26;;;;;;;;;;;;;;;;;;5064587;28;20337;-67
2024/03/27 04:31:54;;;;;;;;;;;;;;;;;;5068167;28;19920;-67
2024/03/27 04:34:19;;;;;;;;;;;;;;;;;;5063825;28;20672;-66
2024/03/27 04:36:45;;;;;;;;;;;;;;;;;;5071061;28;19939;-66
2024/03/27 04:39:11;;;;;;;;;;;;;;;;;;5055527;28;19924;-67
2024/03/27 04:41:37;;;;;;;;;;;;;;;;;;5065952;28;19924;-66
2024/03/27 04:44:04;;;;;;;;;;;;;;;;;;5071195;28;19950;-66
2024/03/27 04:46:29;;;;;;;;;;;;;;;;;;5069288;28;19943;-67
2024/03/27 04:48:55;;;;;;;;;;;;;;;;;;5070991;28;20426;-67
2024/03/27 04:51:21;;;;;;;;;;;;;;;;;;5068949;28;19932;-67
2024/03/27 04:53:47;;;;;;;;;;;;;;;;;;5064739;28;20105;-67
2024/03/27 04:56:13;;;;;;;;;;;;;;;;;;5067451;28;19920;-67
2024/03/27 04:58:39;;;;;;;;;;;;;;;;;;5069513;28;20486;-67
2024/03/27 05:01:05;;;;;;;;;;;;;;;;;;5069663;28;19920;-67
2024/03/27 05:03:31;;;;;;;;;;;;;;;;;;5070245;28;19928;-67
2024/03/27 05:05:57;;;;;;;;;;;;;;;;;;5070784;28;19989;-67
2024/03/27 05:08:23;;;;;;;;;;;;;;;;;;5049813;28;19927;-66
2024/03/27 05:10:49;;;;;;;;;;;;;;;;;;5059545;28;20038;-66
2024/03/27 05:13:15;;;;;;;;;;;;;;;;;;5063481;28;20019;-66
2024/03/27 05:15:41;;;;;;;;;;;;;;;;;;5068873;28;19924;-67
2024/03/27 05:18:07;;;;;;;;;;;;;;;;;;5068384;28;19928;-67
2024/03/27 05:20:33;;;;;;;;;;;;;;;;;;5063029;28;20013;-66
2024/03/27 05:23:00;;;;;;;;;;;;;;;;;;5070335;28;19925;-66
2024/03/27 05:25:26;;;;;;;;;;;;;;;;;;5066988;28;20698;-67
2024/03/27 05:27:52;;;;;;;;;;;;;;;;;;5049112;28;20430;-67
2024/03/27 05:30:18;;;;;;;;;;;;;;;;;;5063433;28;19927;-66
2024/03/27 05:32:44;;;;;;;;;;;;;;;;;;5068749;28;19920;-66
2024/03/27 05:35:10;;;;;;;;;;;;;;;;;;5057964;28;19928;-66
2024/03/27 05:37:36;;;;;;;;;;;;;;;;;;5069539;28;20383;-67
2024/03/27 05:40:03;;;;;;;;;;;;;;;;;;5068630;28;19929;-66
2024/03/27 05:42:29;;;;;;;;;;;;;;;;;;5065513;28;19924;-67
2024/03/27 05:44:55;;;;;;;;;;;;;;;;;;5058817;28;19920;-67
2024/03/27 05:47:21;;;;;;;;;;;;;;;;;;5066867;28;19978;-67
2024/03/27 05:49:47;;;;;;;;;;;;;;;;;;5072513;28;20379;-67
2024/03/27 05:52:13;;;;;;;;;;;;;;;;;;5061645;28;20007;-67
2024/03/27 05:54:39;;;;;;;;;;;;;;;;;;5071056;28;19924;-67
2024/03/27 05:57:05;;;;;;;;;;;;;;;;;;5071541;28;19929;-67
2024/03/27 05:59:31;;;;;;;;;;;;;;;;;;5068571;28;20256;-67
2024/03/27 06:01:57;;;;;;;;;;;;;;;;;;5067427;28;20015;-67
2024/03/27 06:04:23;;;;;;;;;;;;;;;;;;5071372;28;20433;-67
2024/03/27 06:06:49;;;;;;;;;;;;;;;;;;5072049;28;19925;-67
2024/03/27 06:09:15;;;;;;;;;;;;;;;;;;5072675;28;19920;-67
2024/03/27 06:11:41;;;;;;;;;;;;;;;;;;5071166;28;19928;-67
2024/03/27 06:14:07;;;;;;;;;;;;;;;;;;5070763;28;20280;-67
2024/03/27 06:16:33;;;;;;;;;;;;;;;;;;5061712;28;19972;-67
2024/03/27 06:18:59;;;;;;;;;;;;;;;;;;5065312;28;19924;-65
2024/03/27 06:21:24;;;;;;;;;;;;;;;;;;5073204;28;19921;-65
2024/03/27 06:23:50;;;;;;;;;;;;;;;;;;5072093;28;19970;-65
2024/03/27 06:26:16;;;;;;;;;;;;;;;;;;5070843;28;19928;-65
2024/03/27 06:28:42;;;;;;;;;;;;;;;;;;5066701;28;19951;-65
2024/03/27 06:31:08;;;;;;;;;;;;;;;;;;5070239;28;19927;-65
2024/03/27 06:33:34;;;;;;;;;;;;;;;;;;5064476;28;19924;-66
2024/03/27 06:36:00;;;;;;;;;;;;;;;;;;5069016;28;19924;-65
2024/03/27 06:38:27;;;;;;;;;;;;;;;;;;5072314;28;19963;-65
2024/03/27 06:40:53;;;;;;;;;;;;;;;;;;5068337;23;19929;-65
2024/03/27 06:43:20;;;;;;;;;;;;;;;;;;5053153;28;19974;-65
2024/03/27 06:45:49;;;;;;;;;;;;;;;;;;5050297;28;20012;-65
2024/03/27 06:48:19;;;;;;;;;;;;;;;;;;5038868;28;19932;-65
2024/03/27 06:50:45;;;;;;;;;;;;;;;;;;5058586;28;19920;-65
2024/03/27 06:53:11;;;;;;;;;;;;;;;;;;5046467;28;19935;-65
2024/03/27 06:55:37;;;;;;;;;;;;;;;;;;5051702;28;19921;-65
2024/03/27 06:58:03;;;;;;;;;;;;;;;;;;5053074;28;19932;-65
2024/03/27 07:00:29;;;;;;;;;;;;;;;;;;5053819;28;19935;-65
2024/03/27 07:02:55;;;;;;;;;;;;;;;;;;5033908;28;20012;-65
2024/03/27 07:05:21;;;;;;;;;;;;;;;;;;5038186;28;20008;-65
2024/03/27 07:07:47;;;;;;;;;;;;;;;;;;5052279;28;20027;-66
2024/03/27 07:10:13;;;;;;;;;;;;;;;;;;5051737;28;19925;-66
2024/03/27 07:12:39;;;;;;;;;;;;;;;;;;5053139;28;19947;-66
2024/03/27 07:15:06;;;;;;;;;;;;;;;;;;5051184;28;19932;-66
2024/03/27 07:17:32;;;;;;;;;;;;;;;;;;5045872;28;19979;-66
2024/03/27 07:19:59;;;;;;;;;;;;;;;;;;5036361;28;19927;-66
2024/03/27 07:22:25;;;;;;;;;;;;;;;;;;5052535;28;20658;-65
2024/03/27 07:24:50;;;;;;;;;;;;;;;;;;5052476;28;19925;-65
2024/03/27 07:27:16;;;;;;;;;;;;;;;;;;5060221;28;19927;-65
2024/03/27 07:29:42;;;;;;;;;;;;;;;;;;5053283;28;20019;-65
2024/03/27 07:32:08;;;;;;;;;;;;;;;;;;5049030;28;20015;-65
2024/03/27 07:34:34;;;;;;;;;;;;;;;;;;5030874;28;21199;-65
2024/03/27 07:37:00;;;;;;;;;;;;;;;;;;5047566;28;19927;-65
2024/03/27 07:39:26;;;;;;;;;;;;;;;;;;5053072;28;19927;-65
2024/03/27 07:41:52;;;;;;;;;;;;;;;;;;5052853;28;19929;-65
2024/03/27 07:44:18;;;;;;;;;;;;;;;;;;5048251;28;19951;-65
2024/03/27 07:46:44;;;;;;;;;;;;;;;;;;5052597;28;19921;-65
2024/03/27 07:49:10;;;;;;;;;;;;;;;;;;5052551;28;19920;-65
2024/03/27 07:51:35;;;;;;;;;;;;;;;;;;5041999;28;20728;-65
2024/03/27 07:54:01;;;;;;;;;;;;;;;;;;5014699;28;19978;-65
2024/03/27 07:56:27;;;;;;;;;;;;;;;;;;5032749;28;20015;-65
2024/03/27 07:58:53;;;;;;;;;;;;;;;;;;5032627;28;19927;-65
2024/03/27 08:01:19;;;;;;;;;;;;;;;;;;5044138;28;19931;-65
2024/03/27 08:03:45;;;;;;;;;;;;;;;;;;5052349;28;20448;-65
2024/03/27 08:06:13;;;;;;;;;;;;;;;;;;5048091;28;19971;-65
2024/03/27 08:08:39;;;;;;;;;;;;;;;;;;5045341;28;19920;-65
2024/03/27 08:11:06;;;;;;;;;;;;;;;;;;5046478;28;19975;-65
2024/03/27 08:13:32;;;;;;;;;;;;;;;;;;5048488;28;19929;-65
2024/03/27 08:15:58;;;;;;;;;;;;;;;;;;5046790;28;19921;-65
2024/03/27 08:18:24;;;;;;;;;;;;;;;;;;5049115;28;19920;-65
2024/03/27 08:20:50;;;;;;;;;;;;;;;;;;5047949;28;19924;-65
2024/03/27 08:23:15;;;;;;;;;;;;;;;;;;5049204;28;19974;-65
2024/03/27 08:25:41;;;;;;;;;;;;;;;;;;5045976;28;19921;-65
2024/03/27 08:28:07;;;;;;;;;;;;;;;;;;5050325;28;20267;-65
2024/03/27 08:30:33;;;;;;;;;;;;;;;;;;5050172;28;19929;-65
2024/03/27 08:32:59;;;;;;;;;;;;;;;;;;5049564;28;19924;-72
2024/03/27 08:35:25;;;;;;;;;;;;;;;;;;5044651;28;19924;-65
2024/03/27 08:37:51;;;;;;;;;;;;;;;;;;5039951;28;20393;-65
2024/03/27 08:40:17;;;;;;;;;;;;;;;;;;5028634;28;19959;-65
2024/03/27 08:42:43;;;;;;;;;;;;;;;;;;5035765;28;19929;-65
2024/03/27 08:45:09;;;;;;;;;;;;;;;;;;5048161;28;19935;-65
2024/03/27 08:47:35;;;;;;;;;;;;;;;;;;5047775;28;19931;-65
2024/03/27 08:50:00;;;;;;;;;;;;;;;;;;5044030;28;19924;-65
2024/03/27 08:52:26;;;;;;;;;;;;;;;;;;5041444;28;19932;-65
2024/03/27 08:54:52;;;;;;;;;;;;;;;;;;5046837;28;19932;-64
2024/03/27 08:57:18;;;;;;;;;;;;;;;;;;5048179;28;20277;-64
2024/03/27 08:59:44;;;;;;;;;;;;;;;;;;5022823;28;19925;-65
2024/03/27 09:02:10;;;;;;;;;;;;;;;;;;5047465;28;19921;-65
2024/03/27 09:04:36;;;;;;;;;;;;;;;;;;5050241;28;19921;-65
2024/03/27 09:07:02;;;;;;;;;;;;;;;;;;5046220;28;20311;-65
2024/03/27 09:09:28;;;;;;;;;;;;;;;;;;5049639;28;19924;-65
2024/03/27 09:11:54;;;;;;;;;;;;;;;;;;5049726;28;20404;-66
2024/03/27 09:14:20;;;;;;;;;;;;;;;;;;5051106;28;19925;-65
2024/03/27 09:16:47;;;;;;;;;;;;;;;;;;5047920;28;19925;-65
2024/03/27 09:19:14;;;;;;;;;;;;;;;;;;5043618;28;19925;-65
2024/03/27 09:21:40;;;;;;;;;;;;;;;;;;5043500;28;19925;-65
2024/03/27 09:24:05;;;;;;;;;;;;;;;;;;5052426;28;19947;-65
2024/03/27 09:26:31;;;;;;;;;;;;;;;;;;5053076;28;20407;-65
2024/03/27 09:28:57;;;;;;;;;;;;;;;;;;5052444;28;19920;-65
2024/03/27 09:31:23;;;;;;;;;;;;;;;;;;5053035;28;19958;-65
2024/03/27 09:33:49;;;;;;;;;;;;;;;;;;5052676;28;19935;-65
2024/03/27 09:36:16;;;;;;;;;;;;;;;;;;5035184;28;20318;-65
2024/03/27 09:38:42;;;;;;;;;;;;;;;;;;5055034;28;19928;-65
2024/03/27 09:41:08;;;;;;;;;;;;;;;;;;5045255;28;20631;-65
2024/03/27 09:43:34;;;;;;;;;;;;;;;;;;5049205;28;19925;-65
2024/03/27 09:46:01;;;;;;;;;;;;;;;;;;5043092;28;19931;-65
2024/03/27 09:48:26;;;;;;;;;;;;;;;;;;5050143;28;19983;-65
2024/03/27 09:50:52;;;;;;;;;;;;;;;;;;5052259;28;19964;-65
2024/03/27 09:53:18;;;;;;;;;;;;;;;;;;5052779;28;20400;-65
2024/03/27 09:55:44;;;;;;;;;;;;;;;;;;5042566;28;19966;-65
2024/03/27 09:58:10;;;;;;;;;;;;;;;;;;5051777;28;19960;-65
2024/03/27 10:00:36;;;;;;;;;;;;;;;;;;5052644;28;20438;-65
2024/03/27 10:03:02;;;;;;;;;;;;;;;;;;5050878;28;19925;-65
2024/03/27 10:05:28;;;;;;;;;;;;;;;;;;5051014;28;19932;-65
2024/03/27 10:07:54;;;;;;;;;;;;;;;;;;5034331;28;19927;-65
2024/03/27 10:10:20;;;;;;;;;;;;;;;;;;5053861;28;19960;-65
2024/03/27 10:12:46;;;;;;;;;;;;;;;;;;5052747;28;19925;-66
2024/03/27 10:15:12;;;;;;;;;;;;;;;;;;5047511;28;19936;-66
2024/03/27 10:17:38;;;;;;;;;;;;;;;;;;5052333;28;20007;-66
2024/03/27 10:20:05;;;;;;;;;;;;;;;;;;5051337;28;20429;-66
2024/03/27 10:22:31;;;;;;;;;;;;;;;;;;5052838;28;19920;-65
2024/03/27 10:24:57;;;;;;;;;;;;;;;;;;5051361;28;20399;-64
2024/03/27 10:27:23;;;;;;;;;;;;;;;;;;5051516;28;19966;-65
2024/03/27 10:29:49;;;;;;;;;;;;;;;;;;5053245;28;19921;-65
2024/03/27 10:32:15;;;;;;;;;;;;;;;;;;5049701;28;19921;-65
2024/03/27 10:34:42;;;;;;;;;;;;;;;;;;5052513;28;20031;-65
2024/03/27 10:37:08;;;;;;;;;;;;;;;;;;5049961;28;19921;-64
2024/03/27 10:39:34;;;;;;;;;;;;;;;;;;5054139;28;19943;-65
2024/03/27 10:42:00;;;;;;;;;;;;;;;;;;5050273;28;19966;-66
2024/03/27 10:44:26;;;;;;;;;;;;;;;;;;5047225;28;20007;-66
2024/03/27 10:46:52;;;;;;;;;;;;;;;;;;5052802;28;20023;-66
2024/03/27 10:49:18;;;;;;;;;;;;;;;;;;5051970;28;20059;-65
2024/03/27 10:51:44;;;;;;;;;;;;;;;;;;5042599;28;20007;-65
2024/03/27 10:54:10;;;;;;;;;;;;;;;;;;5052341;28;20439;-64
2024/03/27 10:56:36;;;;;;;;;;;;;;;;;;5046306;28;19931;-65
2024/03/27 10:59:02;;;;;;;;;;;;;;;;;;5044769;28;19932;-65
2024/03/27 11:01:28;;;;;;;;;;;;;;;;;;5052480;28;19924;-66
2024/03/27 11:03:54;;;;;;;;;;;;;;;;;;5049703;28;19921;-66
2024/03/27 11:06:20;;;;;;;;;;;;;;;;;;5044017;28;19921;-65
2024/03/27 11:08:46;;;;;;;;;;;;;;;;;;5049642;28;19924;-65
2024/03/27 11:11:12;;;;;;;;;;;;;;;;;;5047890;28;19921;-65
2024/03/27 11:13:37;;;;;;;;;;;;;;;;;;5045016;28;19947;-65
2024/03/27 11:16:03;;;;;;;;;;;;;;;;;;5045544;28;19928;-65
2024/03/27 11:18:29;;;;;;;;;;;;;;;;;;5039568;28;19932;-65
2024/03/27 11:20:55;;;;;;;;;;;;;;;;;;5049321;28;19948;-65
2024/03/27 11:23:21;;;;;;;;;;;;;;;;;;5050249;28;19920;-64
2024/03/27 11:25:47;;;;;;;;;;;;;;;;;;5048919;28;19974;-65
2024/03/27 11:28:13;;;;;;;;;;;;;;;;;;5051976;28;20353;-65
2024/03/27 11:30:39;;;;;;;;;;;;;;;;;;5041905;28;19929;-66
2024/03/27 11:33:05;;;;;;;;;;;;;;;;;;5035784;28;19921;-65
2024/03/27 11:35:31;;;;;;;;;;;;;;;;;;5049291;28;19946;-65
2024/03/27 11:37:57;;;;;;;;;;;;;;;;;;5049601;28;19975;-65
2024/03/27 11:40:22;;;;;;;;;;;;;;;;;;5052333;28;20591;-65
2024/03/27 11:42:48;;;;;;;;;;;;;;;;;;5051887;28;20402;-65
2024/03/27 11:45:14;;;;;;;;;;;;;;;;;;5050299;28;19925;-66
2024/03/27 11:47:40;;;;;;;;;;;;;;;;;;5042037;28;19929;-66
2024/03/27 11:50:07;;;;;;;;;;;;;;;;;;5048868;28;19957;-65
2024/03/27 11:52:33;;;;;;;;;;;;;;;;;;5045492;28;20358;-66
2024/03/27 11:54:59;;;;;;;;;;;;;;;;;;5040602;28;20019;-67
2024/03/27 11:57:25;;;;;;;;;;;;;;;;;;5052684;28;19927;-67
2024/03/27 11:59:51;;;;;;;;;;;;;;;;;;5050307;28;20000;-67
2024/03/27 12:02:17;;;;;;;;;;;;;;;;;;5046256;28;20296;-66
2024/03/27 12:04:43;;;;;;;;;;;;;;;;;;5052370;28;19928;-67
2024/03/27 12:07:08;;;;;;;;;;;;;;;;;;5052305;28;19921;-67
2024/03/27 12:09:34;;;;;;;;;;;;;;;;;;5050975;28;19932;-67
2024/03/27 12:12:00;;;;;;;;;;;;;;;;;;5052480;28;19920;-67
2024/03/27 12:14:26;;;;;;;;;;;;;;;;;;5050683;28;19929;-67
2024/03/27 12:16:53;;;;;;;;;;;;;;;;;;5047696;28;19960;-67
2024/03/27 12:19:19;;;;;;;;;;;;;;;;;;5046639;28;19921;-67
2024/03/27 12:21:45;;;;;;;;;;;;;;;;;;5050689;28;19951;-68
2024/03/27 12:24:11;;;;;;;;;;;;;;;;;;5052215;28;19920;-66
2024/03/27 12:26:36;;;;;;;;;;;;;;;;;;5051696;28;19985;-67
2024/03/27 12:29:05;;;;;;;;;;;;;;;;;;5039734;28;20027;-67
2024/03/27 12:31:31;;;;;;;;;;;;;;;;;;5053765;28;20400;-68
2024/03/27 12:33:57;;;;;;;;;;;;;;;;;;5046664;28;19982;-67
2024/03/27 12:36:24;;;;;;;;;;;;;;;;;;5047252;28;19925;-66
2024/03/27 12:38:49;;;;;;;;;;;;;;;;;;5042470;28;19928;-65
2024/03/27 12:41:15;;;;;;;;;;;;;;;;;;5038086;28;19929;-66
2024/03/27 12:43:41;;;;;;;;;;;;;;;;;;5044520;28;19925;-65
2024/03/27 12:46:07;;;;;;;;;;;;;;;;;;5051127;28;20276;-66
2024/03/27 12:48:33;;;;;;;;;;;;;;;;;;5047703;28;19920;-65
2024/03/27 12:50:59;;;;;;;;;;;;;;;;;;5040417;28;20004;-66
2024/03/27 12:53:25;;;;;;;;;;;;;;;;;;5035050;28;19947;-66
2024/03/27 12:55:51;;;;;;;;;;;;;;;;;;5032399;28;19929;-65
2024/03/27 12:58:17;;;;;;;;;;;;;;;;;;5031634;28;19925;-66
2024/03/27 13:00:43;;;;;;;;;;;;;;;;;;5046780;28;19927;-66
2024/03/27 13:03:09;;;;;;;;;;;;;;;;;;5030260;28;19921;-65
2024/03/27 13:05:35;;;;;;;;;;;;;;;;;;5034835;28;20004;-65
2024/03/27 13:08:01;;;;;;;;;;;;;;;;;;5051628;28;20390;-65
2024/03/27 13:10:29;;;;;;;;;;;;;;;;;;5041133;28;19965;-66
2024/03/27 13:12:55;;;;;;;;;;;;;;;;;;5031169;28;19929;-66
2024/03/27 13:15:20;;;;;;;;;;;;;;;;;;5034244;28;19932;-66
2024/03/27 13:17:46;;;;;;;;;;;;;;;;;;5031952;28;19925;-66
2024/03/27 13:20:13;;;;;;;;;;;;;;;;;;5034612;28;19929;-66
2024/03/27 13:22:39;;;;;;;;;;;;;;;;;;5047595;28;19924;-66
2024/03/27 13:25:04;;;;;;;;;;;;;;;;;;5049189;28;19928;-66
2024/03/27 13:27:30;;;;;;;;;;;;;;;;;;5032439;28;20459;-66
2024/03/27 13:29:56;;;;;;;;;;;;;;;;;;5050570;28;20277;-66
2024/03/27 13:32:22;;;;;;;;;;;;;;;;;;5041715;28;19947;-67
2024/03/27 13:34:48;;;;;;;;;;;;;;;;;;5030683;28;20291;-66
2024/03/27 13:37:14;;;;;;;;;;;;;;;;;;5045130;28;19930;-64
2024/03/27 13:39:41;;;;;;;;;;;;;;;;;;5049090;28;19924;-66
2024/03/27 13:42:07;;;;;;;;;;;;;;;;;;5048684;28;19956;-65
2024/03/27 13:44:33;;;;;;;;;;;;;;;;;;5050015;28;19929;-65
2024/03/27 13:46:59;;;;;;;;;;;;;;;;;;5032871;28;19943;-65
2024/03/27 13:49:25;;;;;;;;;;;;;;;;;;5042340;28;19996;-65
2024/03/27 13:51:51;;;;;;;;;;;;;;;;;;5043947;28;19928;-66
2024/03/27 13:54:17;;;;;;;;;;;;;;;;;;5045454;28;20292;-66
2024/03/27 13:56:43;;;;;;;;;;;;;;;;;;5030986;28;19925;-66
2024/03/27 13:59:09;;;;;;;;;;;;;;;;;;5047666;28;19927;-66
2024/03/27 14:01:35;;;;;;;;;;;;;;;;;;5042055;28;19925;-65
2024/03/27 14:04:01;;;;;;;;;;;;;;;;;;5031806;28;19925;-66
2024/03/27 14:06:26;;;;;;;;;;;;;;;;;;5046239;28;19927;-66
2024/03/27 14:08:52;;;;;;;;;;;;;;;;;;5034281;28;19990;-66
2024/03/27 14:11:18;;;;;;;;;;;;;;;;;;5034361;28;19990;-66
2024/03/27 14:13:44;;;;;;;;;;;;;;;;;;5034175;28;19956;-65
2024/03/27 14:16:10;;;;;;;;;;;;;;;;;;5052951;28;19921;-63
2024/03/27 14:18:36;;;;;;;;;;;;;;;;;;5053272;28;20348;-63
2024/03/27 14:21:02;;;;;;;;;;;;;;;;;;5053890;28;20384;-63
2024/03/27 14:23:28;;;;;;;;;;;;;;;;;;5051921;28;19955;-63
2024/03/27 14:25:54;;;;;;;;;;;;;;;;;;5049205;28;19924;-62
2024/03/27 14:28:21;;;;;;;;;;;;;;;;;;5044279;28;19928;-63
2024/03/27 14:30:47;;;;;;;;;;;;;;;;;;5041845;28;19931;-63
2024/03/27 14:33:13;;;;;;;;;;;;;;;;;;5049800;28;19925;-63
2024/03/27 14:35:39;;;;;;;;;;;;;;;;;;5049998;28;20373;-62
2024/03/27 14:38:05;;;;;;;;;;;;;;;;;;5053898;28;20015;-62
2024/03/27 14:40:31;;;;;;;;;;;;;;;;;;5046077;28;19925;-62
2024/03/27 14:42:57;;;;;;;;;;;;;;;;;;5043546;28;19921;-62
2024/03/27 14:45:23;;;;;;;;;;;;;;;;;;5040201;28;19932;-63
2024/03/27 14:47:48;;;;;;;;;;;;;;;;;;5036657;28;20431;-62
2024/03/27 14:50:14;;;;;;;;;;;;;;;;;;5048372;28;19921;-63
2024/03/27 14:52:40;;;;;;;;;;;;;;;;;;5052211;28;19924;-62
2024/03/27 14:55:06;;;;;;;;;;;;;;;;;;5050323;28;20478;-63
2024/03/27 14:57:32;;;;;;;;;;;;;;;;;;5052337;28;19935;-62
2024/03/27 14:59:58;;;;;;;;;;;;;;;;;;5043954;28;19925;-62
2024/03/27 15:02:24;;;;;;;;;;;;;;;;;;5047844;28;19920;-62
2024/03/27 15:04:50;;;;;;;;;;;;;;;;;;5049040;28;20387;-63
2024/03/27 15:07:16;;;;;;;;;;;;;;;;;;5022188;28;19929;-63
2024/03/27 15:09:42;;;;;;;;;;;;;;;;;;5048333;28;19920;-62
2024/03/27 15:12:08;;;;;;;;;;;;;;;;;;5049458;28;19943;-62
2024/03/27 15:14:34;;;;;;;;;;;;;;;;;;5052968;28;19925;-62
2024/03/27 15:17:00;;;;;;;;;;;;;;;;;;5046889;28;19925;-62
2024/03/27 15:19:26;;;;;;;;;;;;;;;;;;5050584;28;20257;-62
2024/03/27 15:21:52;;;;;;;;;;;;;;;;;;5046531;28;19936;-62
2024/03/27 15:24:18;;;;;;;;;;;;;;;;;;5049460;28;19924;-62
2024/03/27 15:26:43;;;;;;;;;;;;;;;;;;5048140;28;19929;-63
2024/03/27 15:29:11;;;;;;;;;;;;;;;;;;5048664;28;19921;-62
2024/03/27 15:31:37;;;;;;;;;;;;;;;;;;5047777;28;20295;-63
2024/03/27 15:34:03;;;;;;;;;;;;;;;;;;5050138;28;19929;-62
2024/03/27 15:36:28;;;;;;;;;;;;;;;;;;5050521;28;19924;-63
2024/03/27 15:38:55;;;;;;;;;;;;;;;;;;5049834;28;19925;-63
2024/03/27 15:41:21;;;;;;;;;;;;;;;;;;5051789;28;19925;-61
2024/03/27 15:43:47;;;;;;;;;;;;;;;;;;5039396;28;19955;-61
2024/03/27 15:46:12;;;;;;;;;;;;;;;;;;5044924;28;20412;-63
2024/03/27 15:48:44;;;;;;;;;;;;;;;;;;5047792;28;19924;-63
2024/03/27 15:51:10;;;;;;;;;;;;;;;;;;5032427;28;19925;-63
2024/03/27 15:53:36;;;;;;;;;;;;;;;;;;5029191;28;19925;-61
2024/03/27 15:56:01;;;;;;;;;;;;;;;;;;5033838;28;19921;-62
2024/03/27 15:58:27;;;;;;;;;;;;;;;;;;5037814;28;19921;-62
2024/03/27 16:00:53;;;;;;;;;;;;;;;;;;5047248;28;20011;-63
2024/03/27 16:03:19;;;;;;;;;;;;;;;;;;5049417;28;19927;-63
2024/03/27 16:05:45;;;;;;;;;;;;;;;;;;5052031;28;19921;-63
2024/03/27 16:08:11;;;;;;;;;;;;;;;;;;5050988;28;19927;-63
2024/03/27 16:10:37;;;;;;;;;;;;;;;;;;5047899;28;19931;-63
2024/03/27 16:13:03;;;;;;;;;;;;;;;;;;5048283;28;19933;-63
2024/03/27 16:15:29;;;;;;;;;;;;;;;;;;5051397;28;20405;-62
2024/03/27 16:17:55;;;;;;;;;;;;;;;;;;5040177;28;19929;-63
2024/03/27 16:20:21;;;;;;;;;;;;;;;;;;5047285;28;19931;-63
2024/03/27 16:22:47;;;;;;;;;;;;;;;;;;5046095;28;19920;-62
2024/03/27 16:25:13;;;;;;;;;;;;;;;;;;5049415;28;19979;-62
2024/03/27 16:27:40;;;;;;;;;;;;;;;;;;5051810;28;19925;-62
2024/03/27 16:30:08;;;;;;;;;;;;;;;;;;5048769;28;20435;-62
2024/03/27 16:32:33;;;;;;;;;;;;;;;;;;5048219;28;19943;-62
2024/03/27 16:34:59;;;;;;;;;;;;;;;;;;5048207;28;19970;-63
2024/03/27 16:37:25;;;;;;;;;;;;;;;;;;5043268;28;19921;-63